Time,TemperatureF,DewpointF,PressureIn,WindDirection,WindDirectionDegrees,WindSpeedMPH,WindSpeedGustMPH,Humidity,HourlyPrecipIn,Conditions,Clouds,dailyrainin,SoftwareType,DateUTC
2013-04-13 00:00:00,57.9,41.8,29.75,WNW,298,3.0,3.0,55,0.00,,,1.07,Wunderground v.1.15,2013-04-13 04:00:00,
2013-04-13 00:01:00,57.8,41.7,29.75,WNW,298,1.0,3.0,55,0.00,,,0.00,Wunderground v.1.15,2013-04-13 04:01:00,
2013-04-13 00:03:00,57.9,42.3,29.75,NW,315,4.0,11.0,56,0.00,,,-99.99,WeatherLink 6.0.0,2013-04-13 04:03:00,
2013-04-13 00:05:00,57.7,41.6,29.75,WNW,299,1.0,3.0,55,0.00,,,0.00,Wunderground v.1.15,2013-04-13 04:05:00,
2013-04-13 00:11:00,57.8,41.7,29.75,NW,321,1.0,3.0,55,0.00,,,0.00,Wunderground v.1.15,2013-04-13 04:11:00,
2013-04-13 00:16:00,57.8,41.3,29.75,NW,306,2.0,5.0,54,0.00,,,0.00,Wunderground v.1.15,2013-04-13 04:16:00,
2013-04-13 00:21:00,57.9,41.3,29.75,WNW,298,1.0,3.0,54,0.00,,,0.00,Wunderground v.1.15,2013-04-13 04:21:00,
2013-04-13 00:27:00,57.8,41.7,29.75,WNW,299,1.0,4.0,55,0.00,,,0.00,Wunderground v.1.15,2013-04-13 04:27:00,
2013-04-13 00:33:00,57.8,41.3,29.75,NW,315,2.0,9.0,54,0.00,,,-99.99,WeatherLink 6.0.0,2013-04-13 04:33:00,
2013-04-13 00:39:00,57.4,41.8,29.75,NW,306,0.0,2.0,56,0.00,,,0.00,Wunderground v.1.15,2013-04-13 04:39:00,
2013-04-13 00:44:00,57.1,42.0,29.75,WNW,291,0.0,1.0,57,0.00,,,0.00,Wunderground v.1.15,2013-04-13 04:44:00,
2013-04-13 00:50:00,56.8,41.3,29.76,WNW,291,1.0,1.0,56,0.00,,,0.00,Wunderground v.1.15,2013-04-13 04:50:00,
2013-04-13 00:55:00,56.5,41.0,29.75,WNW,298,0.0,1.0,56,0.00,,,0.00,Wunderground v.1.15,2013-04-13 04:55:00,
2013-04-13 01:01:00,56.2,42.1,29.76,WNW,298,0.0,0.0,59,0.00,,,0.00,Wunderground v.1.15,2013-04-13 05:01:00,
2013-04-13 01:06:00,55.9,41.3,29.76,WNW,299,0.0,0.0,58,0.00,,,0.00,Wunderground v.1.15,2013-04-13 05:06:00,
2013-04-13 01:11:00,55.4,41.3,29.76,WNW,299,0.0,0.0,59,0.00,,,0.00,Wunderground v.1.15,2013-04-13 05:11:00,
2013-04-13 01:17:00,54.9,42.1,29.76,WNW,299,3.0,3.0,62,0.00,,,0.00,Wunderground v.1.15,2013-04-13 05:17:00,
2013-04-13 01:23:00,55.1,40.6,29.76,WNW,294,2.0,3.0,58,0.00,,,0.00,Wunderground v.1.15,2013-04-13 05:23:00,
2013-04-13 01:28:00,55.6,41.0,29.76,WNW,296,2.0,3.0,58,0.00,,,0.00,Wunderground v.1.15,2013-04-13 05:28:00,
2013-04-13 01:33:00,55.7,41.1,29.76,WNW,292,1.0,4.0,58,0.00,,,-99.99,WeatherLink 6.0.0,2013-04-13 05:33:00,
2013-04-13 01:39:00,55.1,41.9,29.77,NW,304,0.0,2.0,61,0.00,,,0.00,Wunderground v.1.15,2013-04-13 05:39:00,
2013-04-13 01:44:00,54.9,40.4,29.77,WNW,291,1.0,3.0,58,0.00,,,0.00,Wunderground v.1.15,2013-04-13 05:44:00,
2013-04-13 01:50:00,55.4,40.4,29.77,NW,317,3.0,3.0,57,0.00,,,0.00,Wunderground v.1.15,2013-04-13 05:50:00,
2013-04-13 01:55:00,55.7,40.7,29.77,WNW,303,0.0,3.0,57,0.00,,,0.00,Wunderground v.1.15,2013-04-13 05:55:00,
2013-04-13 02:01:00,55.6,40.6,29.77,NW,311,0.0,1.0,57,0.00,,,0.00,Wunderground v.1.15,2013-04-13 06:01:00,
2013-04-13 02:06:00,55.5,40.0,29.77,WSW,254,2.0,5.0,56,0.00,,,0.00,Wunderground v.1.15,2013-04-13 06:06:00,
2013-04-13 02:11:00,55.3,40.3,29.77,NE,40,0.0,1.0,57,0.00,,,0.00,Wunderground v.1.15,2013-04-13 06:11:00,
2013-04-13 02:16:00,54.9,40.4,29.77,NE,51,0.0,1.0,58,0.00,,,0.00,Wunderground v.1.15,2013-04-13 06:16:00,
2013-04-13 02:21:00,54.4,39.9,29.77,NE,51,0.0,0.0,58,0.00,,,0.00,Wunderground v.1.15,2013-04-13 06:21:00,
2013-04-13 02:26:00,53.9,39.9,29.78,NE,51,0.0,1.0,59,0.00,,,0.00,Wunderground v.1.15,2013-04-13 06:26:00,
2013-04-13 02:32:00,53.6,40.0,29.77,NE,51,0.0,0.0,60,0.00,,,0.00,Wunderground v.1.15,2013-04-13 06:32:00,
2013-04-13 02:37:00,53.1,40.0,29.77,NE,51,0.0,2.0,61,0.00,,,0.00,Wunderground v.1.15,2013-04-13 06:37:00,
2013-04-13 02:42:00,52.7,40.0,29.78,NE,51,0.0,1.0,62,0.00,,,0.00,Wunderground v.1.15,2013-04-13 06:42:00,
2013-04-13 02:47:00,52.3,40.5,29.78,NE,51,0.0,1.0,64,0.00,,,0.00,Wunderground v.1.15,2013-04-13 06:47:00,
2013-04-13 02:53:00,52.0,39.4,29.78,NE,51,0.0,0.0,62,0.00,,,0.00,Wunderground v.1.15,2013-04-13 06:53:00,
2013-04-13 02:58:00,51.8,40.0,29.78,NE,51,0.0,1.0,64,0.00,,,0.00,Wunderground v.1.15,2013-04-13 06:58:00,
2013-04-13 03:03:00,51.7,40.7,29.78,NE,45,0.0,2.0,66,0.00,,,-99.99,WeatherLink 6.0.0,2013-04-13 07:03:00,
2013-04-13 03:08:00,51.2,40.6,29.79,NE,51,0.0,0.0,67,0.00,,,0.00,Wunderground v.1.15,2013-04-13 07:08:00,
2013-04-13 03:14:00,51.0,39.6,29.79,NE,51,0.0,0.0,65,0.00,,,0.00,Wunderground v.1.15,2013-04-13 07:14:00,
2013-04-13 03:19:00,50.9,40.3,29.79,NE,51,0.0,0.0,67,0.00,,,0.00,Wunderground v.1.15,2013-04-13 07:19:00,
2013-04-13 03:24:00,51.1,39.7,29.79,NE,51,0.0,1.0,65,0.00,,,0.00,Wunderground v.1.15,2013-04-13 07:24:00,
2013-04-13 03:29:00,51.2,40.2,29.79,NE,51,0.0,1.0,66,0.00,,,0.00,Wunderground v.1.15,2013-04-13 07:29:00,
2013-04-13 03:34:00,51.1,39.7,29.79,NE,51,0.0,0.0,65,0.00,,,0.00,Wunderground v.1.15,2013-04-13 07:34:00,
2013-04-13 03:39:00,51.0,41.6,29.79,NE,51,0.0,0.0,70,0.00,,,0.00,Wunderground v.1.15,2013-04-13 07:39:00,
2013-04-13 03:44:00,50.8,41.7,29.79,NE,51,0.0,0.0,71,0.00,,,0.00,Wunderground v.1.15,2013-04-13 07:44:00,
2013-04-13 03:49:00,50.4,40.6,29.80,NE,51,0.0,0.0,69,0.00,,,0.00,Wunderground v.1.15,2013-04-13 07:49:00,
2013-04-13 03:54:00,50.3,40.5,29.80,NE,51,0.0,1.0,69,0.00,,,0.00,Wunderground v.1.15,2013-04-13 07:54:00,
2013-04-13 03:59:00,50.4,39.9,29.80,NE,50,1.0,2.0,67,0.00,,,0.00,Wunderground v.1.15,2013-04-13 07:59:00,
2013-04-13 04:00:00,50.5,40.3,29.80,NE,45,0.0,2.0,68,0.00,,,-99.99,WeatherLink 6.0.0,2013-04-13 08:00:00,
2013-04-13 04:04:00,50.7,40.1,29.79,NE,49,0.0,1.0,67,0.00,,,0.00,Wunderground v.1.15,2013-04-13 08:04:00,
2013-04-13 04:09:00,50.9,39.9,29.80,WNW,287,1.0,2.0,66,0.00,,,0.00,Wunderground v.1.15,2013-04-13 08:09:00,
2013-04-13 04:14:00,51.1,39.7,29.80,WNW,287,0.0,1.0,65,0.00,,,0.00,Wunderground v.1.15,2013-04-13 08:14:00,
2013-04-13 04:19:00,51.2,40.2,29.80,WNW,287,1.0,1.0,66,0.00,,,0.00,Wunderground v.1.15,2013-04-13 08:19:00,
2013-04-13 04:24:00,51.1,40.5,29.80,WNW,287,0.0,1.0,67,0.00,,,0.00,Wunderground v.1.15,2013-04-13 08:24:00,
2013-04-13 04:30:00,51.0,40.0,29.80,WNW,287,0.0,0.0,66,0.00,,,0.00,Wunderground v.1.15,2013-04-13 08:30:00,
2013-04-13 04:35:00,51.2,39.4,29.80,WNW,287,1.0,1.0,64,0.00,,,0.00,Wunderground v.1.15,2013-04-13 08:35:00,
2013-04-13 04:40:00,51.4,39.6,29.80,WNW,287,0.0,0.0,64,0.00,,,0.00,Wunderground v.1.15,2013-04-13 08:40:00,
2013-04-13 04:45:00,51.4,39.6,29.80,WNW,287,0.0,0.0,64,0.00,,,0.00,Wunderground v.1.15,2013-04-13 08:45:00,
2013-04-13 04:50:00,51.2,40.2,29.80,WNW,287,0.0,0.0,66,0.00,,,0.00,Wunderground v.1.15,2013-04-13 08:50:00,
2013-04-13 04:55:00,50.9,41.5,29.80,WNW,287,0.0,0.0,70,0.00,,,0.00,Wunderground v.1.15,2013-04-13 08:55:00,
2013-04-13 05:00:00,50.3,40.5,29.81,WNW,287,0.0,0.0,69,0.00,,,0.00,Wunderground v.1.15,2013-04-13 09:00:00,
2013-04-13 05:05:00,50.1,40.3,29.81,WNW,287,0.0,0.0,69,0.00,,,0.00,Wunderground v.1.15,2013-04-13 09:05:00,
2013-04-13 05:10:00,50.0,39.8,29.82,WNW,287,0.0,0.0,68,0.00,,,0.00,Wunderground v.1.15,2013-04-13 09:10:00,
2013-04-13 05:15:00,49.7,40.3,29.82,WNW,287,0.0,0.0,70,0.00,,,0.00,Wunderground v.1.15,2013-04-13 09:15:00,
2013-04-13 05:20:00,49.1,40.1,29.82,WNW,287,0.0,0.0,71,0.00,,,0.00,Wunderground v.1.15,2013-04-13 09:20:00,
2013-04-13 05:26:00,48.8,41.9,29.82,WNW,287,0.0,0.0,77,0.00,,,0.00,Wunderground v.1.15,2013-04-13 09:26:00,
2013-04-13 05:31:00,48.8,41.2,29.82,WNW,287,0.0,0.0,75,0.00,,,0.00,Wunderground v.1.15,2013-04-13 09:31:00,
2013-04-13 05:36:00,48.4,40.1,29.82,WNW,287,0.0,0.0,73,0.00,,,0.00,Wunderground v.1.15,2013-04-13 09:36:00,
2013-04-13 05:41:00,47.9,40.4,29.82,WNW,287,0.0,0.0,75,0.00,,,0.00,Wunderground v.1.15,2013-04-13 09:41:00,
2013-04-13 05:46:00,47.7,40.2,29.82,WNW,287,0.0,0.0,75,0.00,,,0.00,Wunderground v.1.15,2013-04-13 09:46:00,
2013-04-13 05:52:00,47.7,39.8,29.83,WNW,287,0.0,0.0,74,0.00,,,0.00,Wunderground v.1.15,2013-04-13 09:52:00,
2013-04-13 05:57:00,47.6,40.1,29.83,WNW,287,0.0,0.0,75,0.00,,,0.00,Wunderground v.1.15,2013-04-13 09:57:00,
2013-04-13 06:02:00,47.4,40.6,29.83,WNW,287,0.0,0.0,77,0.00,,,0.00,Wunderground v.1.15,2013-04-13 10:02:00,
2013-04-13 06:07:00,46.9,40.1,29.83,WNW,287,0.0,0.0,77,0.00,,,0.00,Wunderground v.1.15,2013-04-13 10:07:00,
2013-04-13 06:12:00,46.5,40.0,29.84,WNW,287,0.0,0.0,78,0.00,,,0.00,Wunderground v.1.15,2013-04-13 10:12:00,
2013-04-13 06:17:00,46.3,40.1,29.84,WNW,287,0.0,0.0,79,0.00,,,0.00,Wunderground v.1.15,2013-04-13 10:17:00,
2013-04-13 06:22:00,46.2,39.4,29.84,WNW,287,0.0,0.0,77,0.00,,,0.00,Wunderground v.1.15,2013-04-13 10:22:00,
2013-04-13 06:27:00,46.1,39.6,29.85,WNW,287,0.0,0.0,78,0.00,,,0.00,Wunderground v.1.15,2013-04-13 10:27:00,
2013-04-13 06:32:00,46.0,40.2,29.85,WNW,287,0.0,0.0,80,0.00,,,0.00,Wunderground v.1.15,2013-04-13 10:32:00,
2013-04-13 06:37:00,45.9,39.8,29.85,WNW,287,0.0,0.0,79,0.00,,,0.00,Wunderground v.1.15,2013-04-13 10:37:00,
2013-04-13 06:43:00,45.7,39.9,29.85,WNW,296,0.0,0.0,80,0.00,,,0.00,Wunderground v.1.15,2013-04-13 10:43:00,
2013-04-13 06:48:00,45.4,39.6,29.85,WNW,296,0.0,0.0,80,0.00,,,0.00,Wunderground v.1.15,2013-04-13 10:48:00,
2013-04-13 06:53:00,45.1,39.6,29.85,WNW,296,0.0,0.0,81,0.00,,,0.00,Wunderground v.1.15,2013-04-13 10:53:00,
2013-04-13 06:58:00,45.0,39.2,29.86,WNW,296,0.0,0.0,80,0.00,,,0.00,Wunderground v.1.15,2013-04-13 10:58:00,
2013-04-13 07:00:00,44.9,39.7,29.86,WNW,292,0.0,1.0,82,0.00,,,-99.99,WeatherLink 6.0.0,2013-04-13 11:00:00,
2013-04-13 07:04:00,44.9,39.7,29.87,WNW,296,0.0,0.0,82,0.00,,,0.00,Wunderground v.1.15,2013-04-13 11:04:00,
2013-04-13 07:09:00,44.9,39.7,29.87,WNW,296,0.0,0.0,82,0.00,,,0.00,Wunderground v.1.15,2013-04-13 11:09:00,
2013-04-13 07:14:00,44.9,39.7,29.87,WNW,296,0.0,1.0,82,0.00,,,0.00,Wunderground v.1.15,2013-04-13 11:14:00,
2013-04-13 07:19:00,45.1,40.2,29.87,NW,304,0.0,1.0,83,0.00,,,0.00,Wunderground v.1.15,2013-04-13 11:19:00,
2013-04-13 07:25:00,45.1,40.2,29.88,NW,310,0.0,1.0,83,0.00,,,0.00,Wunderground v.1.15,2013-04-13 11:25:00,
2013-04-13 07:30:00,45.0,40.1,29.88,NW,310,0.0,0.0,83,0.00,,,0.00,Wunderground v.1.15,2013-04-13 11:30:00,
2013-04-13 07:35:00,45.0,39.8,29.88,NW,310,0.0,0.0,82,0.00,,,0.00,Wunderground v.1.15,2013-04-13 11:35:00,
2013-04-13 07:40:00,45.4,40.5,29.89,NW,311,0.0,0.0,83,0.00,,,0.00,Wunderground v.1.15,2013-04-13 11:40:00,
2013-04-13 07:45:00,46.2,41.6,29.89,NW,311,0.0,0.0,84,0.00,,,0.00,Wunderground v.1.15,2013-04-13 11:45:00,
2013-04-13 07:50:00,47.0,41.8,29.89,NW,311,0.0,0.0,82,0.00,,,0.00,Wunderground v.1.15,2013-04-13 11:50:00,
2013-04-13 07:55:00,48.0,42.4,29.89,NW,311,0.0,0.0,81,0.00,,,0.00,Wunderground v.1.15,2013-04-13 11:55:00,
2013-04-13 08:00:00,49.2,42.3,29.89,NW,310,0.0,0.0,77,0.00,,,0.00,Wunderground v.1.15,2013-04-13 12:00:00,
2013-04-13 08:05:00,50.8,42.5,29.89,NW,311,2.0,2.0,73,0.00,,,0.00,Wunderground v.1.15,2013-04-13 12:05:00,
2013-04-13 08:10:00,52.6,42.3,29.90,WNW,302,0.0,1.0,68,0.00,,,0.00,Wunderground v.1.15,2013-04-13 12:10:00,
2013-04-13 08:16:00,54.2,43.1,29.89,WNW,302,1.0,1.0,66,0.00,,,0.00,Wunderground v.1.15,2013-04-13 12:16:00,
2013-04-13 08:22:00,55.1,42.7,29.89,WNW,302,1.0,4.0,63,0.00,,,0.00,Wunderground v.1.15,2013-04-13 12:22:00,
2013-04-13 08:27:00,55.7,42.5,29.89,WNW,290,2.0,9.0,61,0.00,,,0.00,Wunderground v.1.15,2013-04-13 12:27:00,
2013-04-13 08:32:00,56.2,43.3,29.90,NW,323,2.0,3.0,62,0.00,,,0.00,Wunderground v.1.15,2013-04-13 12:32:00,
2013-04-13 08:37:00,56.6,42.9,29.90,West,277,3.0,5.0,60,0.00,,,0.00,Wunderground v.1.15,2013-04-13 12:37:00,
2013-04-13 08:43:00,57.0,42.4,29.89,WNW,296,3.0,6.0,58,0.00,,,0.00,Wunderground v.1.15,2013-04-13 12:43:00,
2013-04-13 08:48:00,57.3,43.1,29.89,WNW,296,2.0,3.0,59,0.00,,,0.00,Wunderground v.1.15,2013-04-13 12:48:00,
2013-04-13 08:53:00,57.5,42.8,29.90,WNW,289,3.0,4.0,58,0.00,,,0.00,Wunderground v.1.15,2013-04-13 12:53:00,
2013-04-13 08:58:00,57.7,43.5,29.90,NW,314,7.0,7.0,59,0.00,,,0.00,Wunderground v.1.15,2013-04-13 12:58:00,
2013-04-13 09:03:00,57.7,43.0,29.90,WNW,292,3.0,9.0,58,0.00,,,-99.99,WeatherLink 6.0.0,2013-04-13 13:03:00,
2013-04-13 09:08:00,58.2,43.5,29.90,NNW,334,1.0,7.0,58,0.00,,,0.00,Wunderground v.1.15,2013-04-13 13:08:00,
2013-04-13 09:13:00,58.4,43.2,29.90,WNW,303,3.0,9.0,57,0.00,,,0.00,Wunderground v.1.15,2013-04-13 13:13:00,
2013-04-13 09:18:00,58.6,43.9,29.90,NW,309,2.0,9.0,58,0.00,,,0.00,Wunderground v.1.15,2013-04-13 13:18:00,
2013-04-13 09:23:00,59.0,43.8,29.90,WNW,302,0.0,2.0,57,0.00,,,0.00,Wunderground v.1.15,2013-04-13 13:23:00,
2013-04-13 09:28:00,59.1,42.9,29.91,NW,313,5.0,6.0,55,0.00,,,0.00,Wunderground v.1.15,2013-04-13 13:28:00,
2013-04-13 09:33:00,59.1,42.5,29.91,NW,317,2.0,4.0,54,0.00,,,0.00,Wunderground v.1.15,2013-04-13 13:33:00,
2013-04-13 09:39:00,59.3,43.1,29.91,NW,312,0.0,5.0,55,0.00,,,0.00,Wunderground v.1.15,2013-04-13 13:39:00,
2013-04-13 09:44:00,59.7,43.0,29.91,NW,304,2.0,4.0,54,0.00,,,0.00,Wunderground v.1.15,2013-04-13 13:44:00,
2013-04-13 09:49:00,59.9,42.7,29.91,NW,307,1.0,4.0,53,0.00,,,0.00,Wunderground v.1.15,2013-04-13 13:49:00,
2013-04-13 09:54:00,60.4,43.2,29.91,NW,314,1.0,5.0,53,0.00,,,0.00,Wunderground v.1.15,2013-04-13 13:54:00,
2013-04-13 09:59:00,61.0,43.7,29.91,North,360,1.0,5.0,53,0.00,,,0.00,Wunderground v.1.15,2013-04-13 13:59:00,
2013-04-13 10:04:00,61.6,43.3,29.91,WNW,295,1.0,3.0,51,0.00,,,0.00,Wunderground v.1.15,2013-04-13 14:04:00,
2013-04-13 10:10:00,61.7,43.4,29.91,SE,128,1.0,7.0,51,0.00,,,0.00,Wunderground v.1.15,2013-04-13 14:10:00,
2013-04-13 10:15:00,61.8,42.4,29.91,WNW,295,1.0,6.0,49,0.00,,,0.00,Wunderground v.1.15,2013-04-13 14:15:00,
2013-04-13 10:20:00,62.0,42.6,29.92,NW,304,2.0,3.0,49,0.00,,,0.00,Wunderground v.1.15,2013-04-13 14:20:00,
2013-04-13 10:25:00,62.5,42.5,29.92,North,355,4.0,4.0,48,0.00,,,0.00,Wunderground v.1.15,2013-04-13 14:25:00,
2013-04-13 10:30:00,62.7,42.2,29.92,NW,319,1.0,3.0,47,0.00,,,0.00,Wunderground v.1.15,2013-04-13 14:30:00,
2013-04-13 10:35:00,63.1,42.0,29.92,WNW,294,0.0,5.0,46,0.00,,,0.00,Wunderground v.1.15,2013-04-13 14:35:00,
2013-04-13 10:42:00,63.5,42.3,29.92,NNW,330,2.0,4.0,46,0.00,,,0.00,Wunderground v.1.15,2013-04-13 14:42:00,
2013-04-13 10:47:00,63.6,43.0,29.92,WNW,297,4.0,6.0,47,0.00,,,0.00,Wunderground v.1.15,2013-04-13 14:47:00,
2013-04-13 10:52:00,63.7,41.9,29.92,WNW,291,0.0,8.0,45,0.00,,,0.00,Wunderground v.1.15,2013-04-13 14:52:00,
2013-04-13 10:58:00,64.0,42.2,29.92,NW,305,1.0,8.0,45,0.00,,,0.00,Wunderground v.1.15,2013-04-13 14:58:00,
2013-04-13 11:00:00,64.2,43.0,29.92,NW,315,2.0,12.0,46,0.00,,,-99.99,WeatherLink 6.0.0,2013-04-13 15:00:00,
2013-04-13 11:03:00,64.3,43.1,29.92,NW,315,0.0,2.0,46,0.00,,,0.00,Wunderground v.1.15,2013-04-13 15:03:00,
2013-04-13 11:09:00,65.1,43.8,29.92,NW,313,0.0,2.0,46,0.00,,,0.00,Wunderground v.1.15,2013-04-13 15:09:00,
2013-04-13 11:14:00,65.9,42.8,29.92,SW,228,2.0,4.0,43,0.00,,,0.00,Wunderground v.1.15,2013-04-13 15:14:00,
2013-04-13 11:19:00,66.0,44.0,29.92,South,183,0.0,4.0,45,0.00,,,0.00,Wunderground v.1.15,2013-04-13 15:19:00,
2013-04-13 11:24:00,66.8,43.6,29.92,SSW,196,2.0,2.0,43,0.00,,,0.00,Wunderground v.1.15,2013-04-13 15:24:00,
2013-04-13 11:29:00,67.3,44.6,29.92,NW,310,3.0,4.0,44,0.00,,,0.00,Wunderground v.1.15,2013-04-13 15:29:00,
2013-04-13 11:34:00,67.4,44.1,29.92,NW,311,1.0,5.0,43,0.00,,,0.00,Wunderground v.1.15,2013-04-13 15:34:00,
2013-04-13 11:39:00,67.9,44.6,29.92,WNW,296,0.0,5.0,43,0.00,,,0.00,Wunderground v.1.15,2013-04-13 15:39:00,
2013-04-13 11:44:00,68.2,46.0,29.92,SSW,209,2.0,3.0,45,0.00,,,0.00,Wunderground v.1.15,2013-04-13 15:44:00,
2013-04-13 11:50:00,68.6,43.3,29.92,SSW,207,2.0,2.0,40,0.00,,,0.00,Wunderground v.1.15,2013-04-13 15:50:00,
2013-04-13 11:55:00,68.7,45.3,29.91,SSW,200,1.0,5.0,43,0.00,,,0.00,Wunderground v.1.15,2013-04-13 15:55:00,
2013-04-13 12:00:00,69.5,43.4,29.92,NNW,337,0.0,1.0,39,0.00,,,0.00,Wunderground v.1.15,2013-04-13 16:00:00,
2013-04-13 12:05:00,70.2,41.3,29.92,NW,306,0.0,5.0,35,0.00,,,0.00,Wunderground v.1.15,2013-04-13 16:05:00,
2013-04-13 12:10:00,69.8,40.9,29.92,East,86,3.0,3.0,35,0.00,,,0.00,Wunderground v.1.15,2013-04-13 16:10:00,
2013-04-13 12:15:00,69.5,42.8,29.91,WNW,300,1.0,3.0,38,0.00,,,0.00,Wunderground v.1.15,2013-04-13 16:15:00,
2013-04-13 12:21:00,69.9,44.5,29.91,NNW,344,0.0,1.0,40,0.00,,,0.00,Wunderground v.1.15,2013-04-13 16:21:00,
2013-04-13 12:26:00,71.2,42.1,29.91,WNW,282,1.0,3.0,35,0.00,,,0.00,Wunderground v.1.15,2013-04-13 16:26:00,
2013-04-13 12:31:00,71.5,41.6,29.91,NW,326,2.0,3.0,34,0.00,,,0.00,Wunderground v.1.15,2013-04-13 16:31:00,
2013-04-13 12:36:00,71.3,41.5,29.91,NNW,328,6.0,8.0,34,0.00,,,0.00,Wunderground v.1.15,2013-04-13 16:36:00,
2013-04-13 12:41:00,70.4,41.4,29.91,NW,318,0.0,3.0,35,0.00,,,0.00,Wunderground v.1.15,2013-04-13 16:41:00,
2013-04-13 12:47:00,70.3,41.3,29.90,WNW,290,0.0,3.0,35,0.00,,,0.00,Wunderground v.1.15,2013-04-13 16:47:00,
2013-04-13 12:52:00,70.3,39.0,29.90,NE,36,4.0,6.0,32,0.00,,,0.00,Wunderground v.1.15,2013-04-13 16:52:00,
2013-04-13 12:57:00,70.6,40.1,29.90,WNW,291,3.0,6.0,33,0.00,,,0.00,Wunderground v.1.15,2013-04-13 16:57:00,
2013-04-13 13:00:00,70.6,42.3,29.90,NW,315,2.0,11.0,36,0.00,,,-99.99,WeatherLink 6.0.0,2013-04-13 17:00:00,
2013-04-13 13:02:00,70.7,38.6,29.90,NW,321,2.0,4.0,31,0.00,,,0.00,Wunderground v.1.15,2013-04-13 17:02:00,
2013-04-13 13:07:00,71.5,40.9,29.90,NE,51,0.0,4.0,33,0.00,,,0.00,Wunderground v.1.15,2013-04-13 17:07:00,
2013-04-13 13:12:00,72.4,40.9,29.90,West,276,1.0,4.0,32,0.00,,,0.00,Wunderground v.1.15,2013-04-13 17:12:00,
2013-04-13 13:19:00,72.7,41.9,29.90,NW,315,5.0,7.0,33,0.00,,,0.00,Wunderground v.1.15,2013-04-13 17:19:00,
2013-04-13 13:24:00,72.3,38.2,29.90,WNW,287,0.0,6.0,29,0.00,,,0.00,Wunderground v.1.15,2013-04-13 17:24:00,
2013-04-13 13:30:00,72.5,39.3,29.89,NW,313,1.0,6.0,30,0.00,,,0.00,Wunderground v.1.15,2013-04-13 17:30:00,
2013-04-13 13:35:00,72.6,41.8,29.88,SSW,198,0.0,4.0,33,0.00,,,0.00,Wunderground v.1.15,2013-04-13 17:35:00,
2013-04-13 13:40:00,73.1,41.5,29.88,NNW,330,2.0,2.0,32,0.00,,,0.00,Wunderground v.1.15,2013-04-13 17:40:00,
2013-04-13 13:45:00,73.6,41.1,29.88,NW,305,6.0,10.0,31,0.00,,,0.00,Wunderground v.1.15,2013-04-13 17:45:00,
2013-04-13 13:50:00,73.3,41.6,29.88,WNW,292,2.0,2.0,32,0.00,,,0.00,Wunderground v.1.15,2013-04-13 17:50:00,
2013-04-13 13:56:00,73.4,40.1,29.88,NW,308,6.0,10.0,30,0.00,,,0.00,Wunderground v.1.15,2013-04-13 17:56:00,
2013-04-13 14:01:00,73.1,41.5,29.88,WNW,298,0.0,3.0,32,0.00,,,0.00,Wunderground v.1.15,2013-04-13 18:01:00,
2013-04-13 14:07:00,74.0,40.6,29.88,NW,306,2.0,4.0,30,0.00,,,0.00,Wunderground v.1.15,2013-04-13 18:07:00,
2013-04-13 14:12:00,74.2,40.8,29.87,NW,325,1.0,3.0,30,0.00,,,0.00,Wunderground v.1.15,2013-04-13 18:12:00,
2013-04-13 14:17:00,74.5,39.2,29.87,WNW,283,1.0,5.0,28,0.00,,,0.00,Wunderground v.1.15,2013-04-13 18:17:00,
2013-04-13 14:22:00,74.8,40.4,29.87,ENE,74,7.0,7.0,29,0.00,,,0.00,Wunderground v.1.15,2013-04-13 18:22:00,
2013-04-13 14:27:00,75.3,40.8,29.87,WNW,284,1.0,7.0,29,0.00,,,0.00,Wunderground v.1.15,2013-04-13 18:27:00,
2013-04-13 14:32:00,75.9,42.2,29.86,SW,215,1.0,7.0,30,0.00,,,0.00,Wunderground v.1.15,2013-04-13 18:32:00,
2013-04-13 14:38:00,76.2,42.5,29.86,WNW,298,4.0,8.0,30,0.00,,,0.00,Wunderground v.1.15,2013-04-13 18:38:00,
2013-04-13 14:43:00,76.8,43.0,29.86,WSW,237,5.0,9.0,30,0.00,,,0.00,Wunderground v.1.15,2013-04-13 18:43:00,
2013-04-13 14:48:00,76.2,41.6,29.87,NW,320,2.0,9.0,29,0.00,,,0.00,Wunderground v.1.15,2013-04-13 18:48:00,
2013-04-13 14:53:00,75.8,40.4,29.86,NW,313,0.0,3.0,28,0.00,,,0.00,Wunderground v.1.15,2013-04-13 18:53:00,
2013-04-13 14:58:00,76.0,38.6,29.86,West,273,5.0,9.0,26,0.00,,,0.00,Wunderground v.1.15,2013-04-13 18:58:00,
2013-04-13 15:03:00,76.2,37.8,29.86,WNW,295,3.0,9.0,25,0.00,,,0.00,Wunderground v.1.15,2013-04-13 19:03:00,
2013-04-13 15:08:00,75.9,38.5,29.86,SW,235,2.0,11.0,26,0.00,,,0.00,Wunderground v.1.15,2013-04-13 19:08:00,
2013-04-13 15:13:00,75.6,38.3,29.86,WNW,296,1.0,8.0,26,0.00,,,0.00,Wunderground v.1.15,2013-04-13 19:13:00,
2013-04-13 15:18:00,75.4,38.1,29.86,NW,313,4.0,11.0,26,0.00,,,0.00,Wunderground v.1.15,2013-04-13 19:18:00,
2013-04-13 15:23:00,75.4,39.1,29.85,NW,323,3.0,7.0,27,0.00,,,0.00,Wunderground v.1.15,2013-04-13 19:23:00,
2013-04-13 15:28:00,75.7,39.3,29.85,WNW,290,9.0,9.0,27,0.00,,,0.00,Wunderground v.1.15,2013-04-13 19:28:00,
2013-04-13 15:30:00,75.6,39.2,29.85,NW,315,4.0,12.0,27,0.00,,,-99.99,WeatherLink 6.0.0,2013-04-13 19:30:00,
2013-04-13 15:33:00,75.7,38.4,29.85,West,269,1.0,6.0,26,0.00,,,0.00,Wunderground v.1.15,2013-04-13 19:33:00,
2013-04-13 15:38:00,75.7,38.4,29.85,West,281,5.0,19.0,26,0.00,,,0.00,Wunderground v.1.15,2013-04-13 19:38:00,
2013-04-13 15:43:00,75.4,38.1,29.85,West,277,0.0,10.0,26,0.00,,,0.00,Wunderground v.1.15,2013-04-13 19:43:00,
2013-04-13 15:48:00,75.7,37.4,29.85,WNW,295,4.0,11.0,25,0.00,,,0.00,Wunderground v.1.15,2013-04-13 19:48:00,
2013-04-13 15:53:00,76.3,36.8,29.85,NW,309,5.0,8.0,24,0.00,,,0.00,Wunderground v.1.15,2013-04-13 19:53:00,
2013-04-13 15:58:00,76.1,36.7,29.85,NW,311,5.0,12.0,24,0.00,,,0.00,Wunderground v.1.15,2013-04-13 19:58:00,
2013-04-13 16:03:00,75.8,39.4,29.85,WNW,298,1.0,5.0,27,0.00,,,0.00,Wunderground v.1.15,2013-04-13 20:03:00,
2013-04-13 16:08:00,75.7,37.4,29.85,NW,316,2.0,8.0,25,0.00,,,0.00,Wunderground v.1.15,2013-04-13 20:08:00,
2013-04-13 16:13:00,75.8,37.5,29.85,WNW,302,1.0,9.0,25,0.00,,,0.00,Wunderground v.1.15,2013-04-13 20:13:00,
2013-04-13 16:18:00,75.9,37.5,29.85,NW,313,0.0,9.0,25,0.00,,,0.00,Wunderground v.1.15,2013-04-13 20:18:00,
2013-04-13 16:23:00,76.4,36.9,29.84,WNW,288,5.0,7.0,24,0.00,,,0.00,Wunderground v.1.15,2013-04-13 20:23:00,
2013-04-13 16:28:00,76.7,39.2,29.84,NNW,333,0.0,7.0,26,0.00,,,0.00,Wunderground v.1.15,2013-04-13 20:28:00,
2013-04-13 16:30:00,76.9,39.4,29.84,NW,315,3.0,10.0,26,0.00,,,-99.99,WeatherLink 6.0.0,2013-04-13 20:30:00,
2013-04-13 16:33:00,77.1,37.5,29.84,WNW,286,4.0,5.0,24,0.00,,,0.00,Wunderground v.1.15,2013-04-13 20:33:00,
2013-04-13 16:38:00,76.9,36.3,29.84,NW,315,1.0,10.0,23,0.00,,,0.00,Wunderground v.1.15,2013-04-13 20:38:00,
2013-04-13 16:43:00,76.4,35.8,29.84,NW,323,3.0,10.0,23,0.00,,,0.00,Wunderground v.1.15,2013-04-13 20:43:00,
2013-04-13 16:48:00,76.0,35.5,29.84,NNE,18,7.0,11.0,23,0.00,,,0.00,Wunderground v.1.15,2013-04-13 20:48:00,
2013-04-13 16:53:00,75.5,37.2,29.84,WNW,286,5.0,12.0,25,0.00,,,0.00,Wunderground v.1.15,2013-04-13 20:53:00,
2013-04-13 16:58:00,75.2,35.9,29.84,WNW,290,7.0,13.0,24,0.00,,,0.00,Wunderground v.1.15,2013-04-13 20:58:00,
2013-04-13 17:03:00,75.1,35.8,29.84,NW,315,5.0,17.0,24,0.00,,,-99.99,WeatherLink 6.0.0,2013-04-13 21:03:00,
2013-04-13 17:08:00,74.8,34.5,29.85,WNW,288,2.0,10.0,23,0.00,,,0.00,Wunderground v.1.15,2013-04-13 21:08:00,
2013-04-13 17:13:00,74.6,38.4,29.84,NW,306,4.0,7.0,27,0.00,,,0.00,Wunderground v.1.15,2013-04-13 21:13:00,
2013-04-13 17:18:00,74.7,37.5,29.85,WNW,301,4.0,9.0,26,0.00,,,0.00,Wunderground v.1.15,2013-04-13 21:18:00,
2013-04-13 17:23:00,74.4,36.3,29.85,WNW,288,2.0,10.0,25,0.00,,,0.00,Wunderground v.1.15,2013-04-13 21:23:00,
2013-04-13 17:28:00,74.2,36.1,29.85,NW,318,3.0,10.0,25,0.00,,,0.00,Wunderground v.1.15,2013-04-13 21:28:00,
2013-04-13 17:33:00,74.1,37.0,29.85,North,355,5.0,12.0,26,0.00,,,0.00,Wunderground v.1.15,2013-04-13 21:33:00,
2013-04-13 17:38:00,73.9,36.8,29.85,WNW,300,11.0,12.0,26,0.00,,,0.00,Wunderground v.1.15,2013-04-13 21:38:00,
2013-04-13 17:43:00,73.8,36.8,29.85,NNW,329,3.0,10.0,26,0.00,,,0.00,Wunderground v.1.15,2013-04-13 21:43:00,
2013-04-13 17:48:00,73.8,36.8,29.85,NW,304,4.0,14.0,26,0.00,,,0.00,Wunderground v.1.15,2013-04-13 21:48:00,
2013-04-13 17:53:00,73.8,38.6,29.85,WNW,297,5.0,6.0,28,0.00,,,0.00,Wunderground v.1.15,2013-04-13 21:53:00,
2013-04-13 17:58:00,73.6,37.5,29.86,NW,323,5.0,13.0,27,0.00,,,0.00,Wunderground v.1.15,2013-04-13 21:58:00,
2013-04-13 18:03:00,73.5,36.5,29.86,WNW,303,4.0,10.0,26,0.00,,,0.00,Wunderground v.1.15,2013-04-13 22:03:00,
2013-04-13 18:08:00,73.5,37.5,29.86,NNW,337,6.0,11.0,27,0.00,,,0.00,Wunderground v.1.15,2013-04-13 22:08:00,
2013-04-13 18:13:00,73.3,37.3,29.86,WNW,295,1.0,7.0,27,0.00,,,0.00,Wunderground v.1.15,2013-04-13 22:13:00,
2013-04-13 18:18:00,73.3,38.2,29.87,NNW,333,7.0,10.0,28,0.00,,,0.00,Wunderground v.1.15,2013-04-13 22:18:00,
2013-04-13 18:23:00,73.1,38.0,29.87,WNW,302,3.0,5.0,28,0.00,,,0.00,Wunderground v.1.15,2013-04-13 22:23:00,
2013-04-13 18:28:00,73.0,38.0,29.87,WNW,298,4.0,10.0,28,0.00,,,0.00,Wunderground v.1.15,2013-04-13 22:28:00,
2013-04-13 18:34:00,73.0,38.9,29.87,NW,315,4.0,12.0,29,0.00,,,-99.99,WeatherLink 6.0.0,2013-04-13 22:34:00,
2013-04-13 18:39:00,73.0,38.0,29.87,West,275,3.0,4.0,28,0.00,,,0.00,Wunderground v.1.15,2013-04-13 22:39:00,
2013-04-13 18:44:00,72.7,38.6,29.87,NW,314,1.0,9.0,29,0.00,,,0.00,Wunderground v.1.15,2013-04-13 22:44:00,
2013-04-13 18:49:00,72.3,37.4,29.87,NW,309,5.0,5.0,28,0.00,,,0.00,Wunderground v.1.15,2013-04-13 22:49:00,
2013-04-13 18:54:00,72.1,37.2,29.87,WNW,298,4.0,7.0,28,0.00,,,0.00,Wunderground v.1.15,2013-04-13 22:54:00,
2013-04-13 18:59:00,71.9,37.0,29.88,WNW,295,2.0,3.0,28,0.00,,,0.00,Wunderground v.1.15,2013-04-13 22:59:00,
2013-04-13 19:04:00,71.8,37.8,29.87,WNW,298,2.0,6.0,29,0.00,,,0.00,Wunderground v.1.15,2013-04-13 23:04:00,
2013-04-13 19:09:00,71.5,38.4,29.88,NW,308,3.0,3.0,30,0.00,,,0.00,Wunderground v.1.15,2013-04-13 23:09:00,
2013-04-13 19:14:00,71.1,38.9,29.88,WNW,300,3.0,5.0,31,0.00,,,0.00,Wunderground v.1.15,2013-04-13 23:14:00,
2013-04-13 19:19:00,70.7,37.7,29.88,NW,310,3.0,3.0,30,0.00,,,0.00,Wunderground v.1.15,2013-04-13 23:19:00,
2013-04-13 19:24:00,70.4,37.5,29.89,WNW,295,3.0,8.0,30,0.00,,,0.00,Wunderground v.1.15,2013-04-13 23:24:00,
2013-04-13 19:29:00,70.1,37.2,29.89,NW,307,2.0,3.0,30,0.00,,,0.00,Wunderground v.1.15,2013-04-13 23:29:00,
2013-04-13 19:34:00,69.8,37.8,29.89,WNW,292,3.0,5.0,31,0.00,,,0.00,Wunderground v.1.15,2013-04-13 23:34:00,
2013-04-13 19:39:00,69.3,38.2,29.89,WNW,286,4.0,4.0,32,0.00,,,0.00,Wunderground v.1.15,2013-04-13 23:39:00,
2013-04-13 19:44:00,69.0,37.1,29.89,NW,305,2.0,8.0,31,0.00,,,0.00,Wunderground v.1.15,2013-04-13 23:44:00,
2013-04-13 19:50:00,68.6,36.7,29.89,West,259,8.0,9.0,31,0.00,,,0.00,Wunderground v.1.15,2013-04-13 23:50:00,
2013-04-13 19:55:00,68.4,36.6,29.90,WNW,298,3.0,12.0,31,0.00,,,0.00,Wunderground v.1.15,2013-04-13 23:55:00,
2013-04-13 20:00:00,68.1,36.3,29.90,WNW,302,10.0,10.0,31,0.00,,,0.00,Wunderground v.1.15,2013-04-14 00:00:00,
2013-04-13 20:05:00,68.0,36.2,29.89,WNW,290,4.0,10.0,31,0.00,,,0.00,Wunderground v.1.15,2013-04-14 00:05:00,
2013-04-13 20:10:00,67.7,36.8,29.89,NW,304,3.0,11.0,32,0.00,,,0.00,Wunderground v.1.15,2013-04-14 00:10:00,
2013-04-13 20:15:00,67.5,36.6,29.89,WNW,298,2.0,11.0,32,0.00,,,0.00,Wunderground v.1.15,2013-04-14 00:15:00,
2013-04-13 20:20:00,67.3,36.4,29.90,NW,308,3.0,7.0,32,0.00,,,0.00,Wunderground v.1.15,2013-04-14 00:20:00,
2013-04-13 20:25:00,67.3,36.4,29.90,NW,315,1.0,7.0,32,0.00,,,0.00,Wunderground v.1.15,2013-04-14 00:25:00,
2013-04-13 20:30:00,67.1,37.0,29.90,NW,309,1.0,4.0,33,0.00,,,0.00,Wunderground v.1.15,2013-04-14 00:30:00,
2013-04-13 20:35:00,66.8,37.5,29.91,WNW,301,0.0,4.0,34,0.00,,,0.00,Wunderground v.1.15,2013-04-14 00:35:00,
2013-04-13 20:41:00,66.3,37.1,29.91,WNW,302,0.0,1.0,34,0.00,,,0.00,Wunderground v.1.15,2013-04-14 00:41:00,
2013-04-13 20:46:00,65.9,37.5,29.91,WNW,302,0.0,1.0,35,0.00,,,0.00,Wunderground v.1.15,2013-04-14 00:46:00,
2013-04-13 20:51:00,65.4,37.7,29.92,WNW,302,0.0,0.0,36,0.00,,,0.00,Wunderground v.1.15,2013-04-14 00:51:00,
2013-04-13 20:56:00,64.9,37.3,29.92,WNW,302,0.0,0.0,36,0.00,,,0.00,Wunderground v.1.15,2013-04-14 00:56:00,
2013-04-13 21:01:00,64.3,37.5,29.92,WNW,302,0.0,1.0,37,0.00,,,0.00,Wunderground v.1.15,2013-04-14 01:01:00,
2013-04-13 21:06:00,63.8,37.7,29.92,WNW,302,0.0,2.0,38,0.00,,,0.00,Wunderground v.1.15,2013-04-14 01:06:00,
2013-04-13 21:11:00,63.4,38.0,29.92,WNW,302,1.0,1.0,39,0.00,,,0.00,Wunderground v.1.15,2013-04-14 01:11:00,
2013-04-13 21:17:00,63.2,37.8,29.93,WNW,302,0.0,1.0,39,0.00,,,0.00,Wunderground v.1.15,2013-04-14 01:17:00,
2013-04-13 21:22:00,63.1,38.4,29.93,WNW,302,1.0,1.0,40,0.00,,,0.00,Wunderground v.1.15,2013-04-14 01:22:00,
2013-04-13 21:27:00,63.0,37.6,29.93,WNW,302,1.0,4.0,39,0.00,,,0.00,Wunderground v.1.15,2013-04-14 01:27:00,
2013-04-13 21:32:00,63.2,37.8,29.94,WNW,296,2.0,5.0,39,0.00,,,0.00,Wunderground v.1.15,2013-04-14 01:32:00,
2013-04-13 21:37:00,63.4,38.0,29.94,WNW,294,0.0,5.0,39,0.00,,,0.00,Wunderground v.1.15,2013-04-14 01:37:00,
2013-04-13 21:42:00,63.4,38.6,29.94,WNW,294,1.0,2.0,40,0.00,,,0.00,Wunderground v.1.15,2013-04-14 01:42:00,
2013-04-13 21:47:00,63.4,38.0,29.94,WNW,294,0.0,5.0,39,0.00,,,0.00,Wunderground v.1.15,2013-04-14 01:47:00,
2013-04-13 21:52:00,63.3,39.2,29.94,WNW,294,0.0,1.0,41,0.00,,,0.00,Wunderground v.1.15,2013-04-14 01:52:00,
2013-04-13 21:57:00,62.8,38.7,29.95,WNW,294,0.0,1.0,41,0.00,,,0.00,Wunderground v.1.15,2013-04-14 01:57:00,
2013-04-13 22:02:00,62.0,38.6,29.95,WNW,294,0.0,0.0,42,0.00,,,0.00,Wunderground v.1.15,2013-04-14 02:02:00,
2013-04-13 22:07:00,61.3,38.0,29.96,WNW,294,0.0,1.0,42,0.00,,,0.00,Wunderground v.1.15,2013-04-14 02:07:00,
2013-04-13 22:12:00,60.9,38.2,29.96,WNW,294,0.0,0.0,43,0.00,,,0.00,Wunderground v.1.15,2013-04-14 02:12:00,
2013-04-13 22:17:00,60.4,38.4,29.97,WNW,294,0.0,0.0,44,0.00,,,0.00,Wunderground v.1.15,2013-04-14 02:17:00,
2013-04-13 22:22:00,60.0,38.0,29.96,WNW,294,0.0,0.0,44,0.00,,,0.00,Wunderground v.1.15,2013-04-14 02:22:00,
2013-04-13 22:27:00,59.5,37.6,29.97,WNW,294,0.0,0.0,44,0.00,,,0.00,Wunderground v.1.15,2013-04-14 02:27:00,
2013-04-13 22:32:00,59.0,38.2,29.97,WNW,294,0.0,1.0,46,0.00,,,0.00,Wunderground v.1.15,2013-04-14 02:32:00,
2013-04-13 22:38:00,58.7,38.0,29.98,WNW,294,0.0,1.0,46,0.00,,,0.00,Wunderground v.1.15,2013-04-14 02:38:00,
2013-04-13 22:43:00,58.5,37.8,29.98,WNW,294,0.0,1.0,46,0.00,,,0.00,Wunderground v.1.15,2013-04-14 02:43:00,
2013-04-13 22:48:00,58.4,38.2,29.97,WNW,294,0.0,1.0,47,0.00,,,0.00,Wunderground v.1.15,2013-04-14 02:48:00,
2013-04-13 22:53:00,58.3,38.1,29.97,WNW,294,0.0,0.0,47,0.00,,,0.00,Wunderground v.1.15,2013-04-14 02:53:00,
2013-04-13 22:58:00,58.3,38.7,29.97,WNW,294,0.0,0.0,48,0.00,,,0.00,Wunderground v.1.15,2013-04-14 02:58:00,
2013-04-13 23:00:00,58.2,38.6,29.97,WNW,292,0.0,1.0,48,0.00,,,-99.99,WeatherLink 6.0.0,2013-04-14 03:00:00,
2013-04-13 23:03:00,58.1,40.6,29.97,WNW,294,0.0,0.0,52,0.00,,,0.00,Wunderground v.1.15,2013-04-14 03:03:00,
2013-04-13 23:08:00,57.9,40.9,29.97,WNW,294,0.0,0.0,53,0.00,,,0.00,Wunderground v.1.15,2013-04-14 03:08:00,
2013-04-13 23:13:00,57.5,40.0,29.97,WNW,294,0.0,0.0,52,0.00,,,0.00,Wunderground v.1.15,2013-04-14 03:13:00,
2013-04-13 23:18:00,56.9,40.9,29.97,WNW,294,0.0,0.0,55,0.00,,,0.00,Wunderground v.1.15,2013-04-14 03:18:00,
2013-04-13 23:23:00,56.5,41.0,29.97,WNW,294,0.0,0.0,56,0.00,,,0.00,Wunderground v.1.15,2013-04-14 03:23:00,
2013-04-13 23:28:00,56.0,39.1,29.97,WNW,294,0.0,0.0,53,0.00,,,0.00,Wunderground v.1.15,2013-04-14 03:28:00,
2013-04-13 23:33:00,55.6,40.1,29.97,WNW,294,0.0,0.0,56,0.00,,,0.00,Wunderground v.1.15,2013-04-14 03:33:00,
2013-04-13 23:38:00,55.2,41.1,29.97,WNW,294,0.0,0.0,59,0.00,,,0.00,Wunderground v.1.15,2013-04-14 03:38:00,
2013-04-13 23:43:00,54.6,39.7,29.97,WNW,294,0.0,1.0,57,0.00,,,0.00,Wunderground v.1.15,2013-04-14 03:43:00,
2013-04-13 23:48:00,54.2,41.0,29.97,WNW,294,0.0,1.0,61,0.00,,,0.00,Wunderground v.1.15,2013-04-14 03:48:00,
2013-04-13 23:53:00,53.5,41.2,29.97,WNW,294,0.0,0.0,63,0.00,,,0.00,Wunderground v.1.15,2013-04-14 03:53:00,
2013-04-13 23:58:00,52.8,41.4,29.97,WNW,294,0.0,1.0,65,0.00,,,0.00,Wunderground v.1.15,2013-04-14 03:58:00,